createdAt,value
2022-10-03T00:01:21.471Z,101439.22
2022-10-03T00:03:34.346Z,101437.09
2022-10-03T00:05:50.365Z,101446.56
2022-10-03T00:08:07.730Z,101456.13
2022-10-03T00:10:22.410Z,101451.47
2022-10-03T00:12:41.480Z,101445.53
2022-10-03T00:14:52.449Z,101447.44
2022-10-03T00:17:03.124Z,101456.44
2022-10-03T00:19:12.223Z,101455.63
2022-10-03T00:21:22.983Z,101454.53
2022-10-03T00:23:36.204Z,101449.59
2022-10-03T00:25:46.335Z,101453.97
2022-10-03T00:27:55.718Z,101452.88
2022-10-03T00:30:18.045Z,101459.88
2022-10-03T00:32:35.202Z,101460.09
2022-10-03T00:34:48.844Z,101461.50
2022-10-03T00:37:05.122Z,101466.88
2022-10-03T00:39:31.837Z,101458.78
2022-10-03T00:41:50.228Z,101462.81
2022-10-03T00:44:24.244Z,101462.00
2022-10-03T00:47:02.036Z,101459.88
2022-10-03T00:49:38.892Z,101463.91
2022-10-03T00:51:52.575Z,101471.50
2022-10-03T00:54:06.995Z,101465.47
2022-10-03T00:56:28.325Z,101463.03
2022-10-03T00:58:48.112Z,101464.72
2022-10-03T01:00:50.839Z,101469.88
2022-10-03T01:03:19.163Z,101467.22
2022-10-03T01:05:31.461Z,101469.41
2022-10-03T01:07:55.496Z,101472.66
2022-10-03T01:10:10.257Z,101472.66
2022-10-03T01:12:40.279Z,101479.72
2022-10-03T01:15:06.331Z,101479.41
2022-10-03T01:17:18.400Z,101476.75
2022-10-03T01:19:40.619Z,101483.28
2022-10-03T01:21:51.766Z,101478.91
2022-10-03T01:24:19.384Z,101485.22
2022-10-03T01:26:46.395Z,101493.66
2022-10-03T01:28:53.989Z,101497.72
2022-10-03T01:30:59.861Z,101494.78
2022-10-03T01:33:09.713Z,101496.38
2022-10-03T01:35:29.749Z,101498.03
2022-10-03T01:37:38.077Z,101501.59
2022-10-03T01:39:49.305Z,101496.75
2022-10-03T01:41:58.914Z,101500.59
2022-10-03T01:44:12.713Z,101507.66
2022-10-03T01:46:20.674Z,101508.19
2022-10-03T01:48:30.926Z,101512.84
2022-10-03T01:50:38.459Z,101513.50
2022-10-03T01:52:48.959Z,101520.81
2022-10-03T01:55:00.201Z,101521.66
2022-10-03T01:57:15.819Z,101516.25
2022-10-03T01:59:29.148Z,101519.53
2022-10-03T02:01:40.936Z,101523.63
2022-10-03T02:03:52.722Z,101525.25
2022-10-03T02:06:02.939Z,101525.28
2022-10-03T02:08:10.137Z,101526.69
2022-10-03T02:10:22.470Z,101525.88
2022-10-03T02:12:30.522Z,101519.63
2022-10-03T02:14:45.356Z,101520.44
2022-10-03T02:16:56.544Z,101525.28
2022-10-03T02:19:04.737Z,101531.56
2022-10-03T02:21:14.624Z,101518.28
2022-10-03T02:23:25.921Z,101517.72
2022-10-03T02:25:42.915Z,101523.72
2022-10-03T02:28:22.031Z,101518.00
2022-10-03T02:30:39.483Z,101516.97
2022-10-03T02:33:18.190Z,101520.81
2022-10-03T02:35:48.771Z,101525.69
2022-10-03T02:38:16.452Z,101524.88
2022-10-03T02:40:37.777Z,101521.56
2022-10-03T02:43:18.291Z,101517.28
2022-10-03T02:45:50.451Z,101521.41
2022-10-03T02:48:32.594Z,101515.38
2022-10-03T02:51:14.678Z,101505.59
2022-10-03T02:53:56.304Z,101503.41
2022-10-03T02:56:21.285Z,101511.03
2022-10-03T02:58:53.366Z,101513.28
2022-10-03T03:01:18.296Z,101513.56
2022-10-03T03:03:48.699Z,101511.72
2022-10-03T03:06:30.378Z,101511.72
2022-10-03T03:09:00.453Z,101519.88
2022-10-03T03:11:17.184Z,101518.56
2022-10-03T03:13:37.037Z,101517.78
2022-10-03T03:16:03.852Z,101523.47
2022-10-03T03:18:17.487Z,101522.19
2022-10-03T03:20:40.773Z,101530.81
2022-10-03T03:22:56.232Z,101531.59
2022-10-03T03:25:21.760Z,101537.03
2022-10-03T03:27:37.779Z,101538.13
2022-10-03T03:29:48.232Z,101546.03
2022-10-03T03:31:57.869Z,101549.59
2022-10-03T03:34:09.224Z,101545.00
2022-10-03T03:36:22.291Z,101551.50
2022-10-03T03:38:31.744Z,101554.78
2022-10-03T03:40:44.678Z,101552.38
2022-10-03T03:43:05.507Z,101557.25
2022-10-03T03:45:36.364Z,101555.34
2022-10-03T03:48:08.272Z,101546.69
2022-10-03T03:50:31.154Z,101550.47
2022-10-03T03:52:50.437Z,101544.56
2022-10-03T03:55:12.719Z,101547.28
2022-10-03T03:57:28.192Z,101547.28
2022-10-03T03:59:43.991Z,101558.13
2022-10-03T04:02:01.417Z,101554.63
2022-10-03T04:04:16.454Z,101563.06
2022-10-03T04:06:31.900Z,101565.78
2022-10-03T04:09:00.188Z,101563.59
2022-10-03T04:11:15.803Z,101560.94
2022-10-03T04:13:34.532Z,101557.69
2022-10-03T04:16:11.046Z,101559.84
2022-10-03T04:18:32.827Z,101564.19
2022-10-03T04:20:51.852Z,101557.69
2022-10-03T04:23:10.488Z,101570.44
2022-10-03T04:25:25.229Z,101572.03
2022-10-03T04:27:46.805Z,101575.28
2022-10-03T04:29:57.309Z,101584.25
2022-10-03T04:32:10.602Z,101577.75
2022-10-03T04:34:37.734Z,101579.13
2022-10-03T04:37:07.618Z,101581.03
2022-10-03T04:39:20.731Z,101587.84
2022-10-03T04:41:31.313Z,101585.63
2022-10-03T04:43:40.840Z,101582.41
2022-10-03T04:46:00.396Z,101589.47
2022-10-03T04:48:13.118Z,101588.94
2022-10-03T04:50:28.816Z,101578.66
2022-10-03T04:52:36.528Z,101583.53
2022-10-03T04:54:50.869Z,101581.91
2022-10-03T04:57:00.261Z,101585.44
2022-10-03T04:59:11.880Z,101578.66
2022-10-03T05:01:20.499Z,101583.81
2022-10-03T05:03:33.891Z,101578.94
2022-10-03T05:05:51.575Z,101584.66
2022-10-03T05:08:05.514Z,101579.47
2022-10-03T05:10:26.632Z,101582.72
2022-10-03T05:12:34.372Z,101583.81
2022-10-03T05:15:01.267Z,101584.34
2022-10-03T05:17:14.730Z,101588.97
2022-10-03T05:19:47.513Z,101586.25
2022-10-03T05:21:55.362Z,101591.44
2022-10-03T05:24:07.909Z,101596.84
2022-10-03T05:26:44.162Z,101605.50
2022-10-03T05:28:51.391Z,101602.53
2022-10-03T05:31:01.896Z,101599.81
2022-10-03T05:33:11.717Z,101602.00
2022-10-03T05:35:24.285Z,101603.88
2022-10-03T05:37:50.093Z,101605.81
2022-10-03T05:39:58.524Z,101604.44
2022-10-03T05:42:23.942Z,101611.75
2022-10-03T05:44:40.271Z,101610.13
2022-10-03T05:46:57.606Z,101610.94
2022-10-03T05:49:15.186Z,101613.66
2022-10-03T05:51:44.218Z,101619.34
2022-10-03T05:54:15.518Z,101632.38
2022-10-03T05:56:35.608Z,101625.03
2022-10-03T05:59:11.830Z,101631.53
2022-10-03T06:01:43.877Z,101635.31
2022-10-03T06:04:06.312Z,101643.44
2022-10-03T06:06:16.431Z,101646.72
2022-10-03T06:08:50.048Z,101649.41
2022-10-03T06:11:02.339Z,101653.47
2022-10-03T06:13:20.202Z,101652.41
2022-10-03T06:15:39.355Z,101652.41
2022-10-03T06:17:57.705Z,101658.34
2022-10-03T06:20:16.670Z,101658.34
2022-10-03T06:22:41.653Z,101668.66
2022-10-03T06:25:28.965Z,101674.34
2022-10-03T06:28:06.192Z,101679.22
2022-10-03T06:30:22.539Z,101673.28
2022-10-03T06:33:06.036Z,101678.94
2022-10-03T06:35:37.262Z,101682.19
2022-10-03T06:38:11.019Z,101679.75
2022-10-03T06:41:00.668Z,101685.72
2022-10-03T06:43:25.927Z,101685.72
2022-10-03T06:46:13.307Z,101681.41
2022-10-03T06:48:35.614Z,101681.13
2022-10-03T06:50:53.574Z,101672.97
2022-10-03T06:53:34.085Z,101671.38
2022-10-03T06:56:17.883Z,101668.91
2022-10-03T06:58:53.061Z,101673.78
2022-10-03T07:01:04.802Z,101678.63
2022-10-03T07:03:49.973Z,101682.41
2022-10-03T07:06:22.037Z,101684.50
2022-10-03T07:09:04.745Z,101679.63
2022-10-03T07:11:24.709Z,101671.41
2022-10-03T07:14:07.926Z,101676.81
2022-10-03T07:16:29.300Z,101674.28
2022-10-03T07:18:53.675Z,101678.00
2022-10-03T07:21:25.441Z,101680.38
2022-10-03T07:23:44.797Z,101678.72
2022-10-03T07:26:22.532Z,101683.03
2022-10-03T07:28:48.026Z,101683.88
2022-10-03T07:31:00.850Z,101694.22
2022-10-03T07:33:45.837Z,101694.81
2022-10-03T07:36:22.417Z,101707.56
2022-10-03T07:39:00.294Z,101709.44
2022-10-03T07:41:26.629Z,101713.25
2022-10-03T07:44:01.614Z,101711.31
2022-10-03T07:46:35.751Z,101707.19
2022-10-03T07:49:05.333Z,101711.69
2022-10-03T07:51:16.643Z,101711.63
2022-10-03T07:53:55.935Z,101715.41
2022-10-03T07:56:09.759Z,101709.81
2022-10-03T07:58:56.182Z,101711.03
2022-10-03T08:01:28.027Z,101713.66
2022-10-03T08:06:37.858Z,101717.03
2022-10-03T08:09:02.998Z,101712.34
2022-10-03T08:11:32.304Z,101714.72
2022-10-03T08:13:54.005Z,101720.22
2022-10-03T08:16:14.333Z,101714.25
2022-10-03T08:18:48.768Z,101720.44
2022-10-03T08:20:54.372Z,101727.19
2022-10-03T08:23:14.924Z,101723.03
2022-10-03T08:25:26.747Z,101721.25
2022-10-03T08:28:00.268Z,101726.44
2022-10-03T08:30:31.584Z,101735.97
2022-10-03T08:32:55.780Z,101728.72
2022-10-03T08:35:20.808Z,101730.00
2022-10-03T08:37:51.772Z,101727.53
2022-10-03T08:40:23.448Z,101726.22
2022-10-03T08:43:09.399Z,101717.38
2022-10-03T08:45:35.931Z,101712.59
2022-10-03T08:47:55.817Z,101713.91
2022-10-03T08:50:34.101Z,101717.22
2022-10-03T08:52:47.198Z,101714.94
2022-10-03T08:55:21.881Z,101714.66
2022-10-03T08:57:50.327Z,101709.28
2022-10-03T09:00:08.319Z,101710.91
2022-10-03T09:02:42.772Z,101707.50
2022-10-03T09:05:21.640Z,101710.44
2022-10-03T09:07:50.033Z,101707.56
2022-10-03T09:10:32.675Z,101699.59
2022-10-03T09:13:08.451Z,101701.25
2022-10-03T09:15:42.854Z,101700.44
2022-10-03T09:18:19.585Z,101699.53
2022-10-03T09:21:01.104Z,101700.78
2022-10-03T09:23:23.920Z,101709.16
2022-10-03T09:25:40.142Z,101710.28
2022-10-03T09:28:20.010Z,101707.66
2022-10-03T09:30:32.812Z,101719.56
2022-10-03T09:33:17.396Z,101716.94
2022-10-03T09:35:44.645Z,101715.22
2022-10-03T09:38:16.513Z,101720.00
2022-10-03T09:40:56.694Z,101726.69
2022-10-03T09:43:20.355Z,101723.78
2022-10-03T09:45:53.662Z,101716.88
2022-10-03T09:48:26.518Z,101733.16
2022-10-03T09:50:53.959Z,101725.47
2022-10-03T09:53:27.371Z,101718.81
2022-10-03T09:55:49.600Z,101729.63
2022-10-03T09:58:16.432Z,101725.78
2022-10-03T10:00:21.687Z,101717.53
2022-10-03T10:03:03.175Z,101722.19
2022-10-03T10:05:31.164Z,101718.09
2022-10-03T10:08:08.658Z,101714.25
2022-10-03T10:10:54.955Z,101711.75
2022-10-03T10:13:56.112Z,101718.19
2022-10-03T10:16:32.722Z,101715.69
2022-10-03T10:19:09.869Z,101712.88
2022-10-03T10:21:47.835Z,101714.59
2022-10-03T10:24:00.990Z,101711.97
2022-10-03T10:27:03.370Z,101707.50
2022-10-03T10:29:30.471Z,101709.44
2022-10-03T10:32:08.072Z,101707.91
2022-10-03T10:34:56.735Z,101702.63
2022-10-03T10:37:32.922Z,101708.56
2022-10-03T10:40:04.450Z,101698.88
2022-10-03T10:42:46.995Z,101704.16
2022-10-03T10:45:32.930Z,101709.44
2022-10-03T10:48:20.179Z,101699.09
2022-10-03T10:51:08.115Z,101696.03
2022-10-03T10:53:46.099Z,101701.88
2022-10-03T10:56:28.787Z,101701.03
2022-10-03T10:59:31.247Z,101701.69
2022-10-03T11:02:06.610Z,101692.28
2022-10-03T11:05:06.424Z,101699.63
2022-10-03T11:07:35.728Z,101693.09
2022-10-03T11:10:04.502Z,101695.66
2022-10-03T11:12:36.284Z,101687.78
2022-10-03T11:15:18.239Z,101686.28
2022-10-03T11:17:51.402Z,101692.16
2022-10-03T11:20:37.389Z,101683.94
2022-10-03T11:23:12.290Z,101684.16
2022-10-03T11:25:58.512Z,101678.06
2022-10-03T11:28:42.996Z,101675.31
2022-10-03T11:31:27.576Z,101673.91
2022-10-03T11:34:10.928Z,101672.81
2022-10-03T11:37:00.537Z,101674.59
2022-10-03T11:39:07.371Z,101680.28
2022-10-03T11:41:24.395Z,101678.66
2022-10-03T11:44:05.297Z,101665.38
2022-10-03T11:46:21.824Z,101673.28
2022-10-03T11:48:39.110Z,101676.34
2022-10-03T11:50:48.032Z,101668.91
2022-10-03T11:53:10.564Z,101665.19
2022-10-03T11:55:25.397Z,101657.13
2022-10-03T11:57:30.605Z,101667.09
2022-10-03T11:59:53.546Z,101657.91
2022-10-03T12:02:07.809Z,101660.63
2022-10-03T12:04:17.800Z,101659.59
2022-10-03T12:06:31.717Z,101662.16
2022-10-03T12:08:38.108Z,101660.72
2022-10-03T12:10:52.441Z,101658.25
2022-10-03T12:12:57.432Z,101659.22
2022-10-03T12:15:10.318Z,101659.84
2022-10-03T12:17:14.749Z,101654.66
2022-10-03T12:19:24.239Z,101653.97
2022-10-03T12:21:36.538Z,101644.03
2022-10-03T12:24:13.432Z,101643.91
2022-10-03T12:26:24.119Z,101637.75
2022-10-03T12:28:32.361Z,101634.34
2022-10-03T12:30:46.378Z,101643.53
2022-10-03T12:33:08.249Z,101639.19
2022-10-03T12:35:24.453Z,101637.25
2022-10-03T12:37:44.600Z,101634.38
2022-10-03T12:39:54.885Z,101632.00
2022-10-03T12:42:13.405Z,101630.69
2022-10-03T12:44:27.696Z,101620.63
2022-10-03T12:46:39.333Z,101623.22
2022-10-03T12:48:47.028Z,101626.44
2022-10-03T12:50:57.297Z,101617.28
2022-10-03T12:53:28.387Z,101614.22
2022-10-03T12:55:34.582Z,101620.97
2022-10-03T12:58:00.603Z,101613.13
2022-10-03T13:00:05.388Z,101615.22
2022-10-03T13:02:23.664Z,101617.00
2022-10-03T13:04:40.502Z,101611.72
2022-10-03T13:09:58.302Z,101611.34
2022-10-03T13:12:08.106Z,101609.75
2022-10-03T13:14:25.428Z,101611.81
2022-10-03T13:16:32.621Z,101609.91
2022-10-03T13:18:46.903Z,101608.91
2022-10-03T13:20:58.532Z,101604.72
2022-10-03T13:23:05.801Z,101608.88
2022-10-03T13:25:14.085Z,101602.28
2022-10-03T13:27:31.957Z,101606.00
2022-10-03T13:29:41.309Z,101601.16
2022-10-03T13:31:58.383Z,101606.16
2022-10-03T13:34:04.939Z,101599.91
2022-10-03T13:36:18.679Z,101600.06
2022-10-03T13:38:44.313Z,101599.59
2022-10-03T13:40:54.702Z,101600.41
2022-10-03T13:42:59.735Z,101600.56
2022-10-03T13:45:05.902Z,101589.31
2022-10-03T13:47:26.788Z,101595.41
2022-10-03T13:49:33.800Z,101595.88
2022-10-03T13:51:45.486Z,101597.84
2022-10-03T13:53:56.933Z,101591.72
2022-10-03T13:56:06.579Z,101594.59
2022-10-03T13:58:29.366Z,101588.50
2022-10-03T14:00:45.569Z,101589.25
2022-10-03T14:03:09.323Z,101585.72
2022-10-03T14:05:50.472Z,101588.31
2022-10-03T14:07:59.679Z,101584.78
2022-10-03T14:10:12.041Z,101583.81
2022-10-03T14:12:38.241Z,101595.09
2022-10-03T14:14:58.880Z,101584.16
2022-10-03T14:17:10.824Z,101580.28
2022-10-03T14:19:20.781Z,101594.78
2022-10-03T14:21:43.487Z,101589.63
2022-10-03T14:23:51.322Z,101588.50
2022-10-03T14:25:59.540Z,101590.25
2022-10-03T14:28:08.266Z,101591.03
2022-10-03T14:30:14.587Z,101586.88
2022-10-03T14:32:46.106Z,101583.81
2022-10-03T14:34:58.494Z,101579.81
2022-10-03T14:37:13.535Z,101583.94
2022-10-03T14:39:35.709Z,101581.69
2022-10-03T14:41:46.174Z,101582.03
2022-10-03T14:43:52.321Z,101581.09
2022-10-03T14:45:58.925Z,101582.50
2022-10-03T14:48:06.306Z,101582.13
2022-10-03T14:50:16.647Z,101575.34
2022-10-03T14:52:28.397Z,101579.88
2022-10-03T14:54:31.590Z,101580.22
2022-10-03T14:56:42.211Z,101579.09
2022-10-03T14:58:46.589Z,101572.19
2022-10-03T15:00:52.421Z,101576.84
2022-10-03T15:02:54.510Z,101575.53
2022-10-03T15:05:05.912Z,101567.31
2022-10-03T15:07:08.674Z,101572.63
2022-10-03T15:09:12.419Z,101566.53
2022-10-03T15:11:16.954Z,101564.25
2022-10-03T15:13:20.034Z,101567.81
2022-10-03T15:15:27.182Z,101576.03
2022-10-03T15:17:31.868Z,101568.59
2022-10-03T15:19:38.344Z,101573.59
2022-10-03T15:21:45.699Z,101575.34
2022-10-03T15:23:54.403Z,101569.06
2022-10-03T15:25:57.067Z,101563.59
2022-10-03T15:28:04.477Z,101566.50
2022-10-03T15:30:07.793Z,101571.16
2022-10-03T15:32:20.961Z,101568.94
2022-10-03T15:34:25.262Z,101561.22
2022-10-03T15:36:30.414Z,101562.19
2022-10-03T15:38:38.401Z,101561.06
2022-10-03T15:40:50.968Z,101555.75
2022-10-03T15:43:02.847Z,101558.34
2022-10-03T15:45:06.967Z,101553.97
2022-10-03T15:47:13.204Z,101553.59
2022-10-03T15:49:23.036Z,101552.47
2022-10-03T15:51:27.361Z,101544.91
2022-10-03T15:53:36.409Z,101555.34
2022-10-03T15:55:44.846Z,101557.59
2022-10-03T15:57:57.989Z,101553.56
2022-10-03T16:00:03.639Z,101555.81
2022-10-03T16:02:15.585Z,101558.06
2022-10-03T16:04:20.652Z,101556.44
2022-10-03T16:06:25.646Z,101556.25
2022-10-03T16:08:31.662Z,101559.47
2022-10-03T16:10:38.177Z,101559.78
2022-10-03T16:12:52.382Z,101551.38
2022-10-03T16:15:01.953Z,101565.38
2022-10-03T16:17:17.529Z,101562.94
2022-10-03T16:19:34.003Z,101553.13
2022-10-03T16:21:45.583Z,101547.81
2022-10-03T16:23:52.085Z,101552.75
2022-10-03T16:25:56.767Z,101543.44
2022-10-03T16:28:06.721Z,101543.75
2022-10-03T16:30:19.445Z,101540.53
2022-10-03T16:32:24.549Z,101543.75
2022-10-03T16:34:28.631Z,101536.88
2022-10-03T16:36:32.433Z,101536.03
2022-10-03T16:38:39.733Z,101539.41
2022-10-03T16:40:41.482Z,101536.47
2022-10-03T16:42:45.345Z,101537.13
2022-10-03T16:44:53.791Z,101531.47
2022-10-03T16:47:01.113Z,101534.84
2022-10-03T16:49:10.234Z,101530.00
2022-10-03T16:51:18.955Z,101530.00
2022-10-03T16:53:21.774Z,101536.06
2022-10-03T16:55:28.854Z,101544.28
2022-10-03T16:57:41.595Z,101551.78
2022-10-03T16:59:48.119Z,101538.56
2022-10-03T17:01:54.307Z,101546.06
2022-10-03T17:04:02.657Z,101547.19
2022-10-03T17:06:07.306Z,101547.84
2022-10-03T17:08:36.852Z,101540.56
2022-10-03T17:10:39.070Z,101543.41
2022-10-03T17:12:45.103Z,101548.50
2022-10-03T17:14:48.133Z,101537.06
2022-10-03T17:16:59.823Z,101537.81
2022-10-03T17:19:13.875Z,101533.47
2022-10-03T17:21:24.057Z,101541.16
2022-10-03T17:23:33.718Z,101532.53
2022-10-03T17:25:45.328Z,101532.97
2022-10-03T17:27:50.045Z,101523.97
2022-10-03T17:29:57.062Z,101525.09
2022-10-03T17:32:03.099Z,101525.91
2022-10-03T17:34:12.429Z,101524.78
2022-10-03T17:36:38.774Z,101519.34
2022-10-03T17:38:51.128Z,101514.78
2022-10-03T17:41:12.580Z,101518.75
2022-10-03T17:43:23.854Z,101521.28
2022-10-03T17:45:33.196Z,101513.00
2022-10-03T17:47:52.666Z,101507.53
2022-10-03T17:50:00.696Z,101506.84
2022-10-03T17:52:03.046Z,101510.19
2022-10-03T17:54:11.511Z,101515.94
2022-10-03T17:56:17.304Z,101516.75
2022-10-03T17:58:23.351Z,101519.00
2022-10-03T18:00:27.887Z,101513.03
2022-10-03T18:02:40.768Z,101519.50
2022-10-03T18:04:46.729Z,101514.63
2022-10-03T18:06:51.536Z,101514.16
2022-10-03T18:08:54.687Z,101521.72
2022-10-03T18:10:58.918Z,101521.72
2022-10-03T18:13:06.233Z,101518.22
2022-10-03T18:15:26.516Z,101516.69
2022-10-03T18:17:39.633Z,101515.66
2022-10-03T18:19:55.964Z,101513.75
2022-10-03T18:22:05.603Z,101517.91
2022-10-03T18:24:21.480Z,101516.84
2022-10-03T18:26:27.149Z,101520.78
2022-10-03T18:28:33.595Z,101511.28
2022-10-03T18:30:44.083Z,101517.03
2022-10-03T18:32:48.200Z,101517.03
2022-10-03T18:34:59.212Z,101518.75
2022-10-03T18:37:16.898Z,101517.13
2022-10-03T18:39:23.084Z,101520.69
2022-10-03T18:41:25.218Z,101522.09
2022-10-03T18:43:39.004Z,101510.97
2022-10-03T18:45:44.553Z,101507.94
2022-10-03T18:47:53.100Z,101511.78
2022-10-03T18:50:11.002Z,101516.41
2022-10-03T18:52:19.632Z,101507.75
2022-10-03T18:54:31.051Z,101509.97
2022-10-03T18:56:33.593Z,101508.94
2022-10-03T18:58:38.331Z,101516.41
2022-10-03T19:00:47.744Z,101515.09
2022-10-03T19:02:53.297Z,101517.28
2022-10-03T19:05:03.477Z,101523.84
2022-10-03T19:07:17.433Z,101512.22
2022-10-03T19:09:25.857Z,101510.09
2022-10-03T19:11:31.633Z,101505.03
2022-10-03T19:13:41.784Z,101509.91
2022-10-03T19:16:03.517Z,101505.56
2022-10-03T19:18:17.905Z,101499.00
2022-10-03T19:20:27.339Z,101506.13
2022-10-03T19:22:32.556Z,101507.03
2022-10-03T19:24:57.176Z,101508.06
2022-10-03T19:27:00.450Z,101510.00
2022-10-03T19:29:05.765Z,101506.75
2022-10-03T19:31:16.258Z,101509.03
2022-10-03T19:33:25.509Z,101506.03
2022-10-03T19:35:30.192Z,101496.53
2022-10-03T19:37:45.292Z,101501.38
2022-10-03T19:39:48.121Z,101506.94
2022-10-03T19:41:54.535Z,101518.09
2022-10-03T19:44:02.728Z,101514.59
2022-10-03T19:46:24.955Z,101513.47
2022-10-03T19:48:28.819Z,101509.00
2022-10-03T19:50:34.371Z,101520.31
2022-10-03T19:52:38.306Z,101516.47
2022-10-03T19:54:51.597Z,101518.25
2022-10-03T19:56:54.612Z,101520.72
2022-10-03T19:59:04.069Z,101503.75
2022-10-03T20:01:05.899Z,101506.56
2022-10-03T20:03:15.237Z,101501.41
2022-10-03T20:05:19.500Z,101503.13
2022-10-03T20:07:37.793Z,101500.41
2022-10-03T20:09:55.958Z,101505.91
2022-10-03T20:12:01.666Z,101496.66
2022-10-03T20:14:03.882Z,101495.34
2022-10-03T20:16:05.671Z,101489.78
2022-10-03T20:18:11.760Z,101498.28
2022-10-03T20:20:21.505Z,101493.69
2022-10-03T20:22:25.973Z,101487.69
2022-10-03T20:24:34.103Z,101486.59
2022-10-03T20:26:42.410Z,101484.69
2022-10-03T20:28:59.778Z,101482.72
2022-10-03T20:31:01.666Z,101490.09
2022-10-03T20:33:04.901Z,101493.16
2022-10-03T20:35:07.002Z,101497.19
2022-10-03T20:37:36.515Z,101493.41
2022-10-03T20:39:44.611Z,101492.63
2022-10-03T20:42:00.322Z,101490.81
2022-10-03T20:44:11.124Z,101486.78
2022-10-03T20:46:25.078Z,101485.47
2022-10-03T20:48:32.651Z,101486.84
2022-10-03T20:50:38.253Z,101475.16
2022-10-03T20:52:40.188Z,101474.72
2022-10-03T20:54:52.228Z,101468.56
2022-10-03T20:56:58.121Z,101472.38
2022-10-03T20:59:05.098Z,101476.19
2022-10-03T21:01:10.634Z,101477.09
2022-10-03T21:03:21.623Z,101472.22
2022-10-03T21:05:27.116Z,101473.63
2022-10-03T21:07:35.764Z,101473.63
2022-10-03T21:09:44.792Z,101466.41
2022-10-03T21:11:54.555Z,101470.88
2022-10-03T21:13:59.896Z,101468.59
2022-10-03T21:16:04.332Z,101468.53
2022-10-03T21:18:11.603Z,101464.13
2022-10-03T21:20:18.746Z,101474.56
2022-10-03T21:22:23.303Z,101470.16
2022-10-03T21:24:28.870Z,101473.53
2022-10-03T21:26:33.975Z,101476.75
2022-10-03T21:28:37.887Z,101475.13
2022-10-03T21:31:00.686Z,101474.88
2022-10-03T21:33:11.489Z,101467.81
2022-10-03T21:35:23.386Z,101462.63
2022-10-03T21:37:31.416Z,101465.66
2022-10-03T21:39:52.931Z,101464.03
2022-10-03T21:42:08.088Z,101459.13
2022-10-03T21:44:28.366Z,101459.25
2022-10-03T21:46:38.565Z,101463.34
2022-10-03T21:49:01.809Z,101459.84
2022-10-03T21:51:17.982Z,101454.69
2022-10-03T21:53:30.026Z,101454.97
2022-10-03T21:55:53.337Z,101460.19
2022-10-03T21:58:07.158Z,101449.00
2022-10-03T22:00:13.979Z,101447.19
2022-10-03T22:02:23.121Z,101439.38
2022-10-03T22:04:33.982Z,101436.72
2022-10-03T22:06:38.994Z,101445.25
2022-10-03T22:08:44.098Z,101441.94
2022-10-03T22:10:59.731Z,101440.09
2022-10-03T22:13:07.754Z,101437.94
2022-10-03T22:15:19.706Z,101438.19
2022-10-03T22:17:29.413Z,101435.69
2022-10-03T22:19:38.090Z,101436.84
2022-10-03T22:21:48.554Z,101431.66
2022-10-03T22:23:59.566Z,101428.50
2022-10-03T22:26:17.718Z,101431.75
2022-10-03T22:28:32.071Z,101438.56
2022-10-03T22:30:49.381Z,101435.13
2022-10-03T22:33:03.279Z,101423.94
2022-10-03T22:35:20.111Z,101424.81
2022-10-03T22:37:21.970Z,101422.44
2022-10-03T22:39:23.615Z,101418.81
2022-10-03T22:41:29.180Z,101414.16
2022-10-03T22:43:34.362Z,101407.69
2022-10-03T22:45:47.790Z,101412.91
2022-10-03T22:47:53.237Z,101401.50
2022-10-03T22:49:58.735Z,101402.09
2022-10-03T22:52:03.655Z,101402.09
2022-10-03T22:54:10.917Z,101407.00
2022-10-03T22:56:41.897Z,101402.16
2022-10-03T22:58:43.678Z,101398.91
2022-10-03T23:00:49.588Z,101403.31
2022-10-03T23:02:58.100Z,101398.16
2022-10-03T23:05:02.753Z,101394.06
2022-10-03T23:07:27.722Z,101399.50
2022-10-03T23:09:36.842Z,101400.06
2022-10-03T23:11:42.335Z,101389.25
2022-10-03T23:13:44.835Z,101390.41
2022-10-03T23:15:51.822Z,101387.69
2022-10-03T23:18:16.552Z,101384.75
2022-10-03T23:20:29.627Z,101376.13
2022-10-03T23:22:35.083Z,101379.44
2022-10-03T23:24:43.505Z,101381.31
2022-10-03T23:27:06.399Z,101389.75
2022-10-03T23:29:11.934Z,101385.44
2022-10-03T23:31:49.148Z,101374.50
2022-10-03T23:33:52.187Z,101384.34
2022-10-03T23:35:54.106Z,101380.22
2022-10-03T23:37:55.912Z,101371.31
2022-10-03T23:40:27.868Z,101364.28
2022-10-03T23:42:41.695Z,101369.13
2022-10-03T23:44:49.582Z,101368.38
2022-10-03T23:46:53.169Z,101374.44
2022-10-03T23:48:56.959Z,101363.66
2022-10-03T23:51:01.127Z,101363.72
2022-10-03T23:53:03.936Z,101367.50
2022-10-03T23:55:07.918Z,101360.94
2022-10-03T23:57:09.688Z,101364.19
2022-10-03T23:59:20.861Z,101372.38
